Barbados Meteorological Services
Auto gathered TAF list
Powered by Apparatus software
For Flight WS2513
Contact Number 1-(246)-535-0021/2/3/4/5/6
WEB: http://www.barbadosweather.org

**********************************************

2018/12/15 18:37
TAF TXKF 151731Z 1518/1618 16016KT 9999 FEW040 BKN200
BECMG 1600/1603 20018KT


**********************************************
2018/12/15 18:03
TAF TLPL 151700Z 1518/1618 09020KT 9999 SCT026
TEMPO 1600/1612 SHRA BKN022 BKN040


**********************************************
2018/12/15 18:42
TAF TJSJ 151737Z 1518/1618 09015G24KT P6SM VCSH SCT025 SCT050
FM152330 10008KT P6SM FEW030 SCT060 PROB30 1609/1612 VRB12G18KT -SHRA BKN025 BKN050
FM161400 08015G20KT P6SM SCT025 SCT060


**********************************************
2018/12/15 18:03
TAF TFFR 151600Z 1518/1618 11012KT 9999 SCT028
TEMPO 1518/1521 10015G25KT 4000 SHRA BKN025TCU


**********************************************
2018/12/15 18:44
TAF TBPB 151700Z 1518/1618 09022KT 9999 SCT020 PROB30
TEMPO 1518/1524 SHRA BKN014 BKN036


**********************************************
2018/12/15 18:59
TAF TAPA 151700Z 1518/1618 10014KT 9999 SCT019= TAF TRPG 151700Z 1518/1618 11012KT 9999 SCT020


**********************************************
2018/12/15 18:42
TAF KPHL 151740Z 1518/1624 04009KT 3SM -RA BR OVC003
FM152200 04010KT 4SM -RA BR OVC006
FM160600 04012G22KT 3SM RA OVC008
FM161200 04014G24KT 5SM -SHRA BR BKN007
FM161800 04012KT 6SM -SHRA BKN010


**********************************************
2018/12/15 18:42
TAF KORF 151738Z 1518/1618 26007KT 5SM -RA BKN006 OVC050
FM152000 02006KT 3SM -RA BR OVC005
FM160300 22004KT 5SM BR OVC004
FM160900 20004KT 1 1/2SM BR OVC003
FM161300 21006KT 4SM BR OVC003
FM161500 22008KT P6SM OVC007


**********************************************
2018/12/15 16:06
TAF
AMD KJFK 151603Z 1516/1618 03009KT 5SM -RA BR BKN008 OVC015
TEMPO 1516/1518 4SM BR BKN006
FM151800 03009KT P6SM BKN015 BKN025
FM152000 03010KT P6SM SCT035 BKN050
FM160500 05012G20KT 5SM -RA BR SCT015 BKN030
FM160800 05016G22KT 3SM -RA BR BKN015 OVC035
FM161200 05016G24KT 3SM -RA BR SCT007 BKN015


**********************************************
2018/12/15 18:28
TAF KIAD 151726Z 1518/1624 02010KT 3SM -RADZ BKN003 OVC008
FM160000 04008KT 1 1/2SM RA BR SCT003 OVC008 WS020/08035KT
FM160600 03008KT 2SM -RADZ BKN003 OVC008
FM161500 35008KT 3SM -RADZ BKN008 OVC015
FM162100 34011KT P6SM SCT008 BKN015


**********************************************
2018/12/15 17:46
TAF
AMD KEWR 151643Z 1517/1618 03008KT P6SM SCT006 BKN025
TEMPO 1517/1519 5SM BR BKN006
FM151900 02010KT P6SM SCT035 BKN050
FM160500 03010G17KT 5SM -RA BKN050
FM160900 03014G20KT 3SM -RA BR BKN015 OVC035
FM161200 05016G20KT 3SM -RA BR SCT007 BKN015


**********************************************
2018/12/15 18:43
TAF KCHS 151739Z 1518/1618 24009KT P6SM SCT025 BKN050
TEMPO 1519/1520 VRB10G20KT 4SM -SHRA BR SCT009 BKN020
FM160200 26005KT P6SM SCT030
FM161500 28010KT P6SM FEW025


**********************************************
2018/12/15 18:42
TAF KBOS 151740Z 1518/1624 29006KT P6SM FEW060
FM152000 36008KT P6SM SKC
FM160200 04009KT P6SM SCT250
FM161300 06011G18KT P6SM OVC020
FM162100 07014G22KT P6SM -RA OVC020


**********************************************
2018/12/15 18:39
TAF CYYZ 151738Z 1518/1624 03005KT P6SM BKN015 OVC250
TEMPO 1518/1519 SCT015 OVC250
FM151900 05010KT P6SM FEW015 OVC250
FM160000 05008KT P6SM OVC230
FM161000 04007KT P6SM OVC150
FM161400 03008KT P6SM BKN010 OVC120
FM162100 03008KT P6SM OVC010
RMK NXT FCST BY 152100Z


**********************************************
2018/12/15 18:42
TAF CYUL 151738Z 1518/1618 24010KT P6SM FEW040 BKN250
BECMG 1523/1601 VRB03KT
FM160600 04008KT P6SM BKN250
TEMPO 1609/1613 5SM BR
FM161600 04012KT P6SM OVC230
RMK NXT FCST BY 152100Z


**********************************************
2018/12/15 18:42
TAF CYOW 151738Z 1518/1618 28006KT P6SM BKN260
FM160000 34005KT P6SM BKN240
FM161000 05008KT 6SM BR FEW003 BKN240 PROB30 1610/1614 2SM BR
FM161500 06008KT P6SM OVC200
RMK NXT FCST BY 152100Z


**********************************************
2018/12/15 18:42
TAF CYMX 151738Z 1518/1618 25006KT P6SM BKN030 BKN250
FM152200 VRB03KT P6SM BKN250
TEMPO 1609/1614 4SM BR PROB30 1609/1613 2SM BR
FM161600 05006KT P6SM OVC230
RMK NXT FCST BY 160000Z


**********************************************